createdAt,value
2023-05-12T00:02:15.910Z,101063.94
2023-05-12T00:04:46.635Z,101065.11
2023-05-12T00:07:17.410Z,101067.14
2023-05-12T00:09:48.099Z,101065.97
2023-05-12T00:12:18.859Z,101060.56
2023-05-12T00:14:49.527Z,101064.27
2023-05-12T00:17:20.230Z,101062.14
2023-05-12T00:19:50.935Z,101063.40
2023-05-12T00:22:21.617Z,101057.85
2023-05-12T00:24:52.247Z,101057.17
2023-05-12T00:27:22.848Z,101055.14
2023-05-12T00:29:53.447Z,101056.14
2023-05-12T00:32:24.205Z,101054.16
2023-05-12T00:34:54.772Z,101054.48
2023-05-12T00:37:25.511Z,101053.61
2023-05-12T00:39:56.175Z,101054.77
2023-05-12T00:42:26.820Z,101048.91
2023-05-12T00:44:57.464Z,101053.59
2023-05-12T00:47:28.520Z,101055.46
2023-05-12T00:49:59.764Z,101056.89
2023-05-12T00:52:30.468Z,101060.44
2023-05-12T00:55:02.647Z,101057.45
2023-05-12T00:57:34.287Z,101058.58
2023-05-12T01:00:05.579Z,101056.98
2023-05-12T01:02:36.752Z,101059.81
2023-05-12T01:05:08.542Z,101058.36
2023-05-12T01:07:40.540Z,101056.02
2023-05-12T01:10:21.126Z,101057.71
2023-05-12T01:12:52.140Z,101056.67
2023-05-12T01:15:22.803Z,101058.61
2023-05-12T01:17:57.434Z,101060.91
2023-05-12T01:20:28.808Z,101059.25
2023-05-12T01:23:00.281Z,101062.22
2023-05-12T01:25:34.246Z,101059.14
2023-05-12T01:28:06.604Z,101062.90
2023-05-12T01:30:38.979Z,101061.91
2023-05-12T01:33:10.151Z,101061.48
2023-05-12T01:35:40.749Z,101062.90
2023-05-12T01:38:11.439Z,101063.71
2023-05-12T01:40:42.025Z,101067.45
2023-05-12T01:43:12.787Z,101069.20
2023-05-12T01:45:42.022Z,101073.27
2023-05-12T01:48:12.649Z,101073.08
2023-05-12T01:50:43.271Z,101074.98
2023-05-12T01:53:13.904Z,101078.59
2023-05-12T01:55:44.765Z,101077.84
2023-05-12T01:58:15.392Z,101078.77
2023-05-12T02:00:46.049Z,101079.51
2023-05-12T02:03:16.994Z,101081.77
2023-05-12T02:05:46.028Z,101080.13
2023-05-12T02:08:16.768Z,101079.82
2023-05-12T02:10:47.663Z,101080.82
2023-05-12T02:13:18.362Z,101083.33
2023-05-12T02:15:48.950Z,101084.02
2023-05-12T02:18:19.655Z,101086.34
2023-05-12T02:20:50.324Z,101087.11
2023-05-12T02:23:21.059Z,101090.28
2023-05-12T02:25:51.648Z,101089.08
2023-05-12T02:28:22.583Z,101089.59
2023-05-12T02:30:51.672Z,101088.99
2023-05-12T02:33:22.969Z,101089.49
2023-05-12T02:35:53.926Z,101094.05
2023-05-12T02:38:24.585Z,101090.59
2023-05-12T02:40:55.326Z,101092.84
2023-05-12T02:43:25.972Z,101092.77
2023-05-12T02:45:57.357Z,101092.88
2023-05-12T02:48:28.084Z,101092.67
2023-05-12T02:50:58.703Z,101095.30
2023-05-12T02:53:29.596Z,101092.19
2023-05-12T02:56:00.952Z,101093.14
2023-05-12T02:58:31.828Z,101093.11
2023-05-12T03:01:10.218Z,101096.13
2023-05-12T03:03:41.907Z,101095.76
2023-05-12T03:06:12.777Z,101096.17
2023-05-12T03:08:43.462Z,101096.20
2023-05-12T03:11:14.063Z,101097.69
2023-05-12T03:13:44.754Z,101098.22
2023-05-12T03:16:15.633Z,101099.71
2023-05-12T03:18:47.093Z,101097.29
2023-05-12T03:21:17.756Z,101100.77
2023-05-12T03:23:48.386Z,101094.84
2023-05-12T03:26:19.007Z,101097.73
2023-05-12T03:28:49.660Z,101097.20
2023-05-12T03:31:20.482Z,101096.14
2023-05-12T03:33:51.416Z,101098.33
2023-05-12T03:36:20.557Z,101097.52
2023-05-12T03:38:51.166Z,101098.83
2023-05-12T03:41:21.820Z,101102.14
2023-05-12T03:43:52.420Z,101104.88
2023-05-12T03:46:23.165Z,101106.61
2023-05-12T03:48:53.976Z,101104.15
2023-05-12T03:51:24.546Z,101105.29
2023-05-12T03:53:55.255Z,101106.52
2023-05-12T03:56:25.861Z,101106.53
2023-05-12T03:58:56.904Z,101110.07
2023-05-12T04:01:25.927Z,101114.56
2023-05-12T04:03:56.731Z,101115.66
2023-05-12T04:06:27.561Z,101115.58
2023-05-12T04:08:58.743Z,101121.69
2023-05-12T04:11:29.481Z,101123.04
2023-05-12T04:14:00.162Z,101127.01
2023-05-12T04:16:30.761Z,101128.66
2023-05-12T04:18:59.940Z,101128.60
2023-05-12T04:21:30.836Z,101125.32
2023-05-12T04:24:01.437Z,101124.71
2023-05-12T04:26:32.102Z,101130.25
2023-05-12T04:29:05.267Z,101134.11
2023-05-12T04:31:42.040Z,101132.38
2023-05-12T04:34:12.710Z,101131.48
2023-05-12T04:36:43.339Z,101135.89
2023-05-12T04:39:13.950Z,101135.27
2023-05-12T04:41:44.645Z,101140.73
2023-05-12T04:44:15.237Z,101139.27
2023-05-12T04:46:45.892Z,101142.88
2023-05-12T04:49:16.530Z,101141.58
2023-05-12T04:51:47.167Z,101140.11
2023-05-12T04:54:17.873Z,101144.92
2023-05-12T04:56:48.517Z,101142.92
2023-05-12T04:59:19.428Z,101146.02
2023-05-12T05:01:50.358Z,101145.30
2023-05-12T05:04:21.141Z,101146.42
2023-05-12T05:06:51.926Z,101146.02
2023-05-12T05:09:23.072Z,101149.52
2023-05-12T05:11:53.780Z,101152.27
2023-05-12T05:14:24.467Z,101152.94
2023-05-12T05:16:55.223Z,101153.78
2023-05-12T05:19:39.123Z,101157.77
2023-05-12T05:22:16.917Z,101163.86
2023-05-12T05:24:47.496Z,101166.24
2023-05-12T05:27:19.609Z,101165.72
2023-05-12T05:29:50.335Z,101166.75
2023-05-12T05:32:20.981Z,101169.54
2023-05-12T05:34:51.667Z,101171.74
2023-05-12T05:37:22.333Z,101173.48
2023-05-12T05:39:53.010Z,101173.14
2023-05-12T05:42:23.669Z,101169.77
2023-05-12T05:44:54.342Z,101167.15
2023-05-12T05:47:25.015Z,101174.04
2023-05-12T05:49:55.789Z,101181.83
2023-05-12T05:52:28.752Z,101182.36
2023-05-12T05:55:00.202Z,101179.38
2023-05-12T05:57:30.975Z,101181.80
2023-05-12T06:00:00.160Z,101184.23
2023-05-12T06:02:30.839Z,101185.88
2023-05-12T06:05:01.637Z,101191.27
2023-05-12T06:07:32.255Z,101194.73
2023-05-12T06:10:03.011Z,101197.44
2023-05-12T06:12:32.072Z,101195.16
2023-05-12T06:15:02.729Z,101191.77
2023-05-12T06:17:33.486Z,101191.60
2023-05-12T06:20:02.662Z,101192.76
2023-05-12T06:22:33.301Z,101193.71
2023-05-12T06:25:05.526Z,101191.73
2023-05-12T06:27:36.202Z,101190.20
2023-05-12T06:30:10.385Z,101188.21
2023-05-12T06:32:41.126Z,101187.88
2023-05-12T06:35:12.080Z,101191.02
2023-05-12T06:37:41.176Z,101187.95
2023-05-12T06:40:15.170Z,101192.59
2023-05-12T06:42:45.813Z,101188.98
2023-05-12T06:45:16.464Z,101195.16
2023-05-12T06:47:47.261Z,101191.02
2023-05-12T06:50:16.495Z,101192.44
2023-05-12T06:52:47.207Z,101195.52
2023-05-12T06:55:17.954Z,101191.09
2023-05-12T06:57:48.752Z,101197.05
2023-05-12T07:00:20.412Z,101193.64
2023-05-12T07:02:51.318Z,101198.09
2023-05-12T07:05:20.788Z,101200.05
2023-05-12T07:07:59.283Z,101195.88
2023-05-12T07:10:29.904Z,101192.45
2023-05-12T07:13:00.677Z,101195.54
2023-05-12T07:15:31.253Z,101197.60
2023-05-12T07:18:03.538Z,101195.61
2023-05-12T07:20:34.564Z,101194.23
2023-05-12T07:23:05.252Z,101193.42
2023-05-12T07:25:36.092Z,101192.19
2023-05-12T07:28:07.098Z,101194.19
2023-05-12T07:30:38.469Z,101196.60
2023-05-12T07:33:09.250Z,101198.23
2023-05-12T07:35:40.589Z,101196.34
2023-05-12T07:38:11.265Z,101195.41
2023-05-12T07:40:41.943Z,101194.84
2023-05-12T07:43:12.728Z,101196.58
2023-05-12T07:45:41.774Z,101197.36
2023-05-12T07:48:12.859Z,101202.14
2023-05-12T07:50:45.664Z,101200.72
2023-05-12T07:53:16.611Z,101199.45
2023-05-12T07:55:45.677Z,101200.73
2023-05-12T07:58:16.275Z,101197.92
2023-05-12T08:00:46.915Z,101194.38
2023-05-12T08:03:17.710Z,101200.42
2023-05-12T08:05:48.821Z,101195.98
2023-05-12T08:08:19.459Z,101196.58
2023-05-12T08:10:50.085Z,101197.44
2023-05-12T08:13:20.864Z,101200.60
2023-05-12T08:15:50.378Z,101191.27
2023-05-12T08:18:21.891Z,101188.41
2023-05-12T08:20:52.700Z,101196.73
2023-05-12T08:23:23.347Z,101196.41
2023-05-12T08:25:52.372Z,101200.16
2023-05-12T08:28:23.086Z,101195.17
2023-05-12T08:30:53.747Z,101195.48
2023-05-12T08:33:24.560Z,101196.45
2023-05-12T08:35:53.697Z,101194.95
2023-05-12T08:38:24.320Z,101195.14
2023-05-12T08:41:08.144Z,101198.44
2023-05-12T08:43:44.307Z,101193.13
2023-05-12T08:46:15.663Z,101190.33
2023-05-12T08:48:48.128Z,101192.37
2023-05-12T08:51:19.905Z,101203.02
2023-05-12T08:53:53.509Z,101198.02
2023-05-12T08:58:58.605Z,101190.02
2023-05-12T09:01:30.206Z,101193.21
2023-05-12T09:04:00.975Z,101191.76
2023-05-12T09:06:31.970Z,101188.38
2023-05-12T09:09:03.124Z,101189.79
2023-05-12T09:11:33.794Z,101184.80
2023-05-12T09:14:04.383Z,101191.04
2023-05-12T09:16:35.561Z,101196.30
2023-05-12T09:19:06.839Z,101192.94
2023-05-12T09:21:38.137Z,101198.22
2023-05-12T09:24:09.362Z,101191.13
2023-05-12T09:26:48.923Z,101187.20
2023-05-12T09:29:30.649Z,101184.41
2023-05-12T09:32:04.105Z,101187.44
2023-05-12T09:34:36.829Z,101195.56
2023-05-12T09:37:09.337Z,101190.09
2023-05-12T09:39:39.946Z,101185.89
2023-05-12T09:42:12.287Z,101191.34
2023-05-12T09:44:43.045Z,101192.94
2023-05-12T09:47:13.922Z,101191.73
2023-05-12T09:49:51.800Z,101187.77
2023-05-12T09:52:23.498Z,101192.05
2023-05-12T09:54:54.152Z,101194.02
2023-05-12T09:57:24.746Z,101191.20
2023-05-12T09:59:55.898Z,101199.64
2023-05-12T10:02:27.904Z,101200.75
2023-05-12T10:05:06.825Z,101193.32
2023-05-12T10:07:38.099Z,101192.38
2023-05-12T10:10:11.496Z,101192.17
2023-05-12T10:12:42.494Z,101189.90
2023-05-12T10:15:16.901Z,101183.95
2023-05-12T10:17:50.299Z,101184.17
2023-05-12T10:20:23.029Z,101183.23
2023-05-12T10:22:56.045Z,101177.42
2023-05-12T10:25:26.996Z,101174.69
2023-05-12T10:27:59.041Z,101179.11
2023-05-12T10:30:30.026Z,101176.85
2023-05-12T10:33:01.160Z,101179.48
2023-05-12T10:35:36.044Z,101178.30
2023-05-12T10:38:09.831Z,101181.86
2023-05-12T10:40:53.001Z,101173.49
2023-05-12T10:43:28.515Z,101178.88
2023-05-12T10:46:10.156Z,101173.66
2023-05-12T10:48:53.341Z,101175.48
2023-05-12T10:51:26.442Z,101178.23
2023-05-12T10:54:03.488Z,101183.52
2023-05-12T10:56:44.963Z,101180.38
2023-05-12T10:59:18.394Z,101170.82
2023-05-12T11:02:02.187Z,101170.59
2023-05-12T11:04:46.038Z,101172.23
2023-05-12T11:10:26.533Z,101168.53
2023-05-12T11:12:59.035Z,101167.98
2023-05-12T11:15:32.436Z,101167.90
2023-05-12T11:18:05.282Z,101172.08
2023-05-12T11:21:31.822Z,101172.55
2023-05-12T11:24:03.397Z,101162.98
2023-05-12T11:26:35.450Z,101158.71
2023-05-12T11:29:06.304Z,101163.49
2023-05-12T11:31:38.221Z,101162.63
2023-05-12T11:34:12.963Z,101162.95
2023-05-12T11:36:44.713Z,101160.58
2023-05-12T11:39:25.987Z,101155.08
2023-05-12T11:42:09.459Z,101155.83
2023-05-12T11:44:49.929Z,101150.43
2023-05-12T11:47:21.403Z,101157.33
2023-05-12T11:49:53.546Z,101159.70
2023-05-12T11:52:25.215Z,101159.04
2023-05-12T11:54:59.407Z,101154.95
2023-05-12T11:57:31.839Z,101158.97
2023-05-12T12:00:04.703Z,101157.48
2023-05-12T12:02:36.022Z,101150.77
2023-05-12T12:05:18.549Z,101153.90
2023-05-12T12:07:49.485Z,101156.23
2023-05-12T12:10:20.477Z,101158.51
2023-05-12T12:12:51.483Z,101153.67
2023-05-12T12:15:22.413Z,101146.87
2023-05-12T12:17:53.237Z,101154.11
2023-05-12T12:20:24.170Z,101154.60
2023-05-12T12:22:55.390Z,101153.80
2023-05-12T12:25:26.304Z,101148.15
2023-05-12T12:27:57.019Z,101157.61
2023-05-12T12:30:33.465Z,101158.93
2023-05-12T12:33:04.240Z,101150.15
2023-05-12T12:35:34.878Z,101149.43
2023-05-12T12:38:07.721Z,101150.17
2023-05-12T12:40:38.435Z,101148.86
2023-05-12T12:43:09.373Z,101154.46
2023-05-12T12:45:42.700Z,101153.31
2023-05-12T12:48:14.698Z,101148.88
2023-05-12T12:50:45.487Z,101148.13
2023-05-12T12:53:16.216Z,101149.35
2023-05-12T12:55:46.891Z,101152.60
2023-05-12T12:58:17.668Z,101144.47
2023-05-12T13:00:48.407Z,101148.45
2023-05-12T13:03:20.480Z,101140.98
2023-05-12T13:05:51.295Z,101140.81
2023-05-12T13:08:22.035Z,101136.20
2023-05-12T13:10:52.691Z,101135.42
2023-05-12T13:13:23.380Z,101137.73
2023-05-12T13:15:55.133Z,101134.60
2023-05-12T13:18:35.977Z,101134.77
2023-05-12T13:21:07.778Z,101127.21
2023-05-12T13:23:38.688Z,101128.40
2023-05-12T13:26:09.400Z,101129.96
2023-05-12T13:28:40.720Z,101128.61
2023-05-12T13:31:11.438Z,101127.32
2023-05-12T13:33:52.437Z,101122.94
2023-05-12T13:36:23.072Z,101123.87
2023-05-12T13:38:53.897Z,101123.45
2023-05-12T13:41:24.521Z,101118.77
2023-05-12T13:43:55.169Z,101120.77
2023-05-12T13:46:25.849Z,101122.04
2023-05-12T13:48:56.597Z,101123.80
2023-05-12T13:51:27.677Z,101120.34
2023-05-12T13:53:58.324Z,101123.15
2023-05-12T13:56:28.989Z,101120.73
2023-05-12T13:58:59.712Z,101118.75
2023-05-12T14:01:30.839Z,101123.84
2023-05-12T14:04:01.557Z,101117.50
2023-05-12T14:06:32.209Z,101118.64
2023-05-12T14:09:03.622Z,101121.38
2023-05-12T14:11:34.665Z,101117.42
2023-05-12T14:14:05.418Z,101114.80
2023-05-12T14:16:36.061Z,101114.19
2023-05-12T14:19:10.647Z,101110.38
2023-05-12T14:21:41.331Z,101109.07
2023-05-12T14:24:12.092Z,101110.86
2023-05-12T14:26:42.662Z,101110.47
2023-05-12T14:29:13.346Z,101105.89
2023-05-12T14:31:44.063Z,101110.13
2023-05-12T14:34:14.833Z,101106.29
2023-05-12T14:36:45.475Z,101111.58
2023-05-12T14:39:16.108Z,101111.73
2023-05-12T14:41:46.772Z,101104.19
2023-05-12T14:44:17.399Z,101107.11
2023-05-12T14:46:48.362Z,101110.98
2023-05-12T14:49:19.129Z,101112.86
2023-05-12T14:51:50.023Z,101115.18
2023-05-12T14:54:25.746Z,101117.40
2023-05-12T14:56:56.966Z,101112.63
2023-05-12T14:59:28.875Z,101117.77
2023-05-12T15:01:59.609Z,101111.98
2023-05-12T15:04:30.462Z,101112.10
2023-05-12T15:07:01.441Z,101112.22
2023-05-12T15:09:32.102Z,101110.35
2023-05-12T15:12:02.766Z,101110.07
2023-05-12T15:14:33.801Z,101109.80
2023-05-12T15:17:04.668Z,101114.27
2023-05-12T15:19:35.430Z,101110.79
2023-05-12T15:22:06.281Z,101107.70
2023-05-12T15:24:36.988Z,101112.17
2023-05-12T15:27:07.874Z,101109.98
2023-05-12T15:29:40.771Z,101111.61
2023-05-12T15:32:11.425Z,101108.36
2023-05-12T15:34:42.114Z,101110.03
2023-05-12T15:37:13.109Z,101109.75
2023-05-12T15:39:43.982Z,101110.16
2023-05-12T15:42:19.231Z,101109.52
2023-05-12T15:44:53.036Z,101109.73
2023-05-12T15:47:23.685Z,101106.67
2023-05-12T15:49:54.289Z,101112.61
2023-05-12T15:52:25.017Z,101119.12
2023-05-12T15:54:55.721Z,101112.66
2023-05-12T15:57:26.342Z,101114.49
2023-05-12T15:59:59.964Z,101114.96
2023-05-12T16:02:30.912Z,101115.91
2023-05-12T16:05:01.719Z,101115.14
2023-05-12T16:07:32.820Z,101110.41
2023-05-12T16:10:03.718Z,101112.79
2023-05-12T16:12:34.355Z,101113.98
2023-05-12T16:15:03.579Z,101114.16
2023-05-12T16:17:34.294Z,101114.22
2023-05-12T16:20:07.899Z,101107.36
2023-05-12T16:22:38.523Z,101114.31
2023-05-12T16:25:08.538Z,101108.16
2023-05-12T16:27:39.278Z,101111.95
2023-05-12T16:30:09.665Z,101114.80
2023-05-12T16:32:40.368Z,101112.59
2023-05-12T16:35:11.391Z,101110.55
2023-05-12T16:37:42.014Z,101108.27
2023-05-12T16:40:11.469Z,101110.48
2023-05-12T16:42:42.138Z,101106.85
2023-05-12T16:45:14.115Z,101108.11
2023-05-12T16:47:45.153Z,101107.37
2023-05-12T16:50:16.042Z,101104.04
2023-05-12T16:52:46.698Z,101103.95
2023-05-12T16:55:21.577Z,101107.81
2023-05-12T16:57:52.605Z,101107.58
2023-05-12T17:00:23.428Z,101109.86
2023-05-12T17:02:55.192Z,101113.41
2023-05-12T17:05:26.120Z,101112.46
2023-05-12T17:07:56.770Z,101115.29
2023-05-12T17:10:25.826Z,101117.57
2023-05-12T17:12:56.546Z,101121.20
2023-05-12T17:15:27.494Z,101119.53
2023-05-12T17:17:58.205Z,101121.19
2023-05-12T17:20:29.395Z,101125.77
2023-05-12T17:23:00.202Z,101123.70
2023-05-12T17:25:31.082Z,101131.26
2023-05-12T17:28:01.819Z,101127.87
2023-05-12T17:30:32.565Z,101136.59
2023-05-12T17:33:04.476Z,101135.70
2023-05-12T17:35:35.176Z,101135.52
2023-05-12T17:38:06.011Z,101134.66
2023-05-12T17:40:36.887Z,101144.17
2023-05-12T17:43:07.652Z,101150.67
2023-05-12T17:45:38.316Z,101145.98
2023-05-12T17:48:07.387Z,101146.75
2023-05-12T17:50:38.052Z,101150.20
2023-05-12T17:53:07.136Z,101153.23
2023-05-12T17:55:39.566Z,101155.06
2023-05-12T17:58:10.201Z,101160.67
2023-05-12T18:00:39.334Z,101162.71
2023-05-12T18:03:10.029Z,101164.26
2023-05-12T18:05:40.796Z,101164.90
2023-05-12T18:08:09.951Z,101165.09
2023-05-12T18:10:40.562Z,101166.80
2023-05-12T18:13:09.729Z,101166.53
2023-05-12T18:15:40.343Z,101173.40
2023-05-12T18:18:11.227Z,101174.41
2023-05-12T18:20:42.012Z,101175.17
2023-05-12T18:23:12.858Z,101177.65
2023-05-12T18:25:43.312Z,101180.93
2023-05-12T18:29:50.327Z,101182.55
2023-05-12T18:32:19.417Z,101182.38
2023-05-12T18:34:50.141Z,101187.86
2023-05-12T18:37:23.099Z,101188.13
2023-05-12T18:39:53.837Z,101199.34
2023-05-12T18:42:24.534Z,101203.31
2023-05-12T18:44:55.305Z,101204.98
2023-05-12T18:47:24.420Z,101213.51
2023-05-12T18:49:55.096Z,101219.67
2023-05-12T18:52:25.810Z,101223.97
2023-05-12T18:54:54.893Z,101226.84
2023-05-12T18:57:25.535Z,101225.95
2023-05-12T18:59:56.254Z,101230.73
2023-05-12T19:02:27.076Z,101232.86
2023-05-12T19:04:57.892Z,101231.13
2023-05-12T19:07:27.068Z,101228.39
2023-05-12T19:09:57.708Z,101231.98
2023-05-12T19:12:28.796Z,101235.16
2023-05-12T19:14:59.472Z,101240.48
2023-05-12T19:17:31.548Z,101240.30
2023-05-12T19:20:02.281Z,101239.55
2023-05-12T19:22:33.067Z,101244.16
2023-05-12T19:25:06.018Z,101248.33
2023-05-12T19:27:36.751Z,101248.93
2023-05-12T19:30:09.873Z,101253.77
2023-05-12T19:32:40.623Z,101251.88
2023-05-12T19:35:13.796Z,101252.63
2023-05-12T19:37:45.296Z,101254.41
2023-05-12T19:40:16.201Z,101255.09
2023-05-12T19:42:45.315Z,101259.54
2023-05-12T19:45:16.078Z,101257.73
2023-05-12T19:47:56.798Z,101261.50
2023-05-12T19:50:26.274Z,101266.30
2023-05-12T19:52:56.982Z,101273.55
2023-05-12T19:55:34.551Z,101268.42
2023-05-12T19:58:05.179Z,101270.05
2023-05-12T20:00:38.246Z,101270.56
2023-05-12T20:03:09.971Z,101270.34
2023-05-12T20:05:39.201Z,101272.28
2023-05-12T20:08:14.396Z,101270.76
2023-05-12T20:10:47.945Z,101273.47
2023-05-12T20:13:18.568Z,101277.07
2023-05-12T20:15:49.302Z,101275.25
2023-05-12T20:18:19.972Z,101277.25
2023-05-12T20:20:53.338Z,101280.69
2023-05-12T20:23:23.970Z,101280.81
2023-05-12T20:25:57.120Z,101282.10
2023-05-12T20:28:28.026Z,101280.91
2023-05-12T20:30:57.127Z,101286.91
2023-05-12T20:33:47.763Z,101286.38
2023-05-12T20:36:18.731Z,101287.14
2023-05-12T20:38:49.609Z,101288.79
2023-05-12T20:41:20.220Z,101291.08
2023-05-12T20:43:50.890Z,101289.42
2023-05-12T20:46:21.583Z,101291.59
2023-05-12T20:48:52.246Z,101293.34
2023-05-12T20:51:22.907Z,101289.98
2023-05-12T20:53:53.920Z,101292.77
2023-05-12T20:56:24.599Z,101292.64
2023-05-12T20:58:55.324Z,101294.02
2023-05-12T21:01:25.918Z,101299.95
2023-05-12T21:03:56.682Z,101296.80
2023-05-12T21:06:27.841Z,101297.14
2023-05-12T21:08:58.503Z,101297.55
2023-05-12T21:11:29.174Z,101298.79
2023-05-12T21:13:59.865Z,101302.83
2023-05-12T21:16:30.609Z,101301.79
2023-05-12T21:19:03.836Z,101304.97
2023-05-12T21:21:34.503Z,101304.36
2023-05-12T21:24:05.805Z,101302.20
2023-05-12T21:26:36.482Z,101302.84
2023-05-12T21:29:07.072Z,101307.98
2023-05-12T21:31:37.745Z,101311.44
2023-05-12T21:34:08.373Z,101310.69
2023-05-12T21:36:38.978Z,101312.19
2023-05-12T21:39:09.558Z,101310.81
2023-05-12T21:41:40.189Z,101313.41
2023-05-12T21:44:11.439Z,101316.39
2023-05-12T21:46:42.612Z,101321.16
2023-05-12T21:49:11.802Z,101320.67
2023-05-12T21:51:42.446Z,101320.58
2023-05-12T21:54:13.069Z,101325.08
2023-05-12T21:56:43.679Z,101323.88
2023-05-12T21:59:14.293Z,101323.02
2023-05-12T22:01:45.028Z,101325.20
2023-05-12T22:04:14.310Z,101326.54
2023-05-12T22:06:45.014Z,101329.39
2023-05-12T22:09:15.774Z,101330.21
2023-05-12T22:11:46.393Z,101330.36
2023-05-12T22:14:16.986Z,101335.18
2023-05-12T22:16:47.747Z,101339.08
2023-05-12T22:19:21.931Z,101343.81
2023-05-12T22:21:52.835Z,101342.89
2023-05-12T22:24:23.428Z,101347.27
2023-05-12T22:26:54.214Z,101344.19
2023-05-12T22:29:24.819Z,101346.06
2023-05-12T22:31:55.532Z,101343.61
2023-05-12T22:34:26.249Z,101344.88
2023-05-12T22:36:56.925Z,101340.10
2023-05-12T22:39:27.492Z,101342.68
2023-05-12T22:41:58.196Z,101345.52
2023-05-12T22:44:28.881Z,101345.48
2023-05-12T22:46:59.539Z,101343.41
2023-05-12T22:49:30.190Z,101346.63
2023-05-12T22:52:01.067Z,101345.61
2023-05-12T22:54:30.095Z,101344.66
2023-05-12T22:57:00.853Z,101343.83
2023-05-12T22:59:31.442Z,101349.36
2023-05-12T23:02:02.404Z,101345.89
2023-05-12T23:04:33.139Z,101346.73
2023-05-12T23:07:04.111Z,101349.11
2023-05-12T23:09:34.869Z,101348.02
2023-05-12T23:12:07.959Z,101349.73
2023-05-12T23:14:38.596Z,101350.84
2023-05-12T23:17:09.380Z,101348.61
2023-05-12T23:19:39.924Z,101350.27
2023-05-12T23:22:09.403Z,101350.92
2023-05-12T23:24:39.990Z,101347.20
2023-05-12T23:27:10.843Z,101348.11
2023-05-12T23:29:41.414Z,101348.19
2023-05-12T23:32:12.194Z,101347.76
2023-05-12T23:34:42.959Z,101346.73
2023-05-12T23:37:13.668Z,101347.17
2023-05-12T23:39:44.367Z,101347.36
2023-05-12T23:42:14.993Z,101344.84
2023-05-12T23:44:45.884Z,101342.84
2023-05-12T23:47:14.949Z,101343.48
2023-05-12T23:49:45.588Z,101341.59
2023-05-12T23:52:16.220Z,101339.27
2023-05-12T23:54:46.844Z,101343.24
2023-05-12T23:57:17.574Z,101343.84
2023-05-12T23:59:48.249Z,101343.02
